Pagrindinis puslapis
METAR-TAF:

METAR-TAF

Oro uostai :

Viktorija, Mahė, Seišeliai

platuma: 04-40S, ilguma: 055-31E, Aukštis: 3 m

Dabartinis oras

Ataskaita buvo paskelbta 5 minutes, ne 22:00 UTC
Vėjas 13 kt iš Rytų, svyruoja nuo Šiaurės Rytų ir Rytų/Pietryčių
Temperatūra 27°C
Drėgmė 89%
Slėgis 1010 hPa
Matomumas 10 km arba daugiau
Su prošvaistėmis ne aukštis 1800 ft

METAR: FSIA 302200Z 08013KT 040V110 9999 BKN018 27/25 Q1010 TEMPO -SHRA

Laikas: 02:05 (22:05 UTC)

Prognozė

Ataskaita buvo paskelbta 5 valandos ir 4 minutes, ne 17:01 UTC
Prognozė galioja nuo 30 metu 18 UTC su 31 metu 18 UTC
Vėjas 10 kt iš Pietryčių
Matomumas 10 km arba daugiau
Išsisklaidę debesys ne aukštis 2200 ft
Tikimybė 40% :
Laikinai
nuo 30 metu 22 UTC su 31 metu 05 UTC
Mažai debesys ne aukštis 1500 ft
Su prošvaistėmis ne aukštis 1800 ft
lietus

TAF: FSIA 301701Z 3018/3118 13010KT 9999 SCT022 PROB40 TEMPO 3022/3105 -SHRA FEW015 BKN018

Orai ataskaitas ir orų prognozės (METAR, TAF).

turimą stotys yra geltonos ir raudonos taškus žemėlapyje.

Perkelti pele per norėdami pamatyti stoties vardą.

Tada spustelėkite, norėdami matyti oro stebėjimo ir prognozės.

Norėdami pakeisti žemėlapį: spustelėkite ant žalios mygtukų su juodo kryžiaus žemyn,; žalią mygtuką su brūkšneliu, jei norite nutolinti; arba žalių rodyklių gretimoms žemėlapius.


METAR-TAF: